createdAt,value
2018-06-13T00:01:16.504Z,14.4
2018-06-13T00:02:36.355Z,15.2
2018-06-13T00:03:58.705Z,15.2
2018-06-13T00:05:33.808Z,15.3
2018-06-13T00:06:56.197Z,15.2
2018-06-13T00:08:18.555Z,15.2
2018-06-13T00:09:38.376Z,15.2
2018-06-13T00:10:58.253Z,15.3
2018-06-13T00:12:18.079Z,15.3
2018-06-13T00:13:37.907Z,15.2
2018-06-13T00:14:57.733Z,15.2
2018-06-13T00:16:17.555Z,15.2
2018-06-13T00:17:39.921Z,15.2
2018-06-13T00:18:59.802Z,15.2
2018-06-13T00:20:19.656Z,14.5
2018-06-13T00:21:39.541Z,15.4
2018-06-13T00:22:59.446Z,15.3
2018-06-13T00:24:21.846Z,15.3
2018-06-13T00:25:44.222Z,15.3
2018-06-13T00:27:06.628Z,15.1
2018-06-13T00:28:26.465Z,15
2018-06-13T00:29:48.857Z,15
2018-06-13T00:31:08.703Z,15.2
2018-06-13T00:32:33.605Z,14.8
2018-06-13T00:33:56.035Z,14.8
2018-06-13T00:35:18.403Z,14.8
2018-06-13T00:36:40.821Z,14.8
2018-06-13T00:38:03.199Z,14.8
2018-06-13T00:39:23.027Z,14.8
2018-06-13T00:40:47.920Z,14.8
2018-06-13T00:42:07.796Z,14.8
2018-06-13T00:43:30.169Z,14.8
2018-06-13T00:45:00.168Z,14.8
2018-06-13T00:46:19.988Z,14.8
2018-06-13T00:47:39.830Z,14.8
2018-06-13T00:48:59.734Z,14.8
2018-06-13T00:50:19.584Z,14.8
2018-06-13T00:51:44.497Z,14.8
2018-06-13T00:53:06.857Z,14.8
2018-06-13T00:54:29.243Z,14.8
2018-06-13T00:55:49.099Z,14.8
2018-06-13T00:57:08.965Z,14.7
2018-06-13T00:58:46.500Z,14.8
2018-06-13T01:00:06.364Z,14.8
2018-06-13T01:01:26.200Z,14.8
2018-06-13T01:02:46.022Z,14.8
2018-06-13T01:04:05.847Z,14.7
2018-06-13T01:05:38.308Z,14.8
2018-06-13T01:07:05.722Z,14.8
2018-06-13T01:08:25.547Z,14.8
2018-06-13T01:09:45.395Z,14.8
2018-06-13T01:11:05.301Z,14.8
2018-06-13T01:12:25.162Z,14.8
2018-06-13T01:13:45.031Z,14.8
2018-06-13T01:15:07.397Z,14.8
2018-06-13T01:16:27.240Z,14.8
2018-06-13T01:17:47.076Z,14.7
2018-06-13T01:19:09.481Z,14.8
2018-06-13T01:20:31.840Z,14.7
2018-06-13T01:21:54.286Z,14.7
2018-06-13T01:23:19.205Z,14.7
2018-06-13T01:24:39.064Z,14.7
2018-06-13T01:26:01.417Z,14.7
2018-06-13T01:27:21.242Z,14.7
2018-06-13T01:28:41.125Z,14.7
2018-06-13T01:30:08.571Z,14.6
2018-06-13T01:31:28.454Z,14.6
2018-06-13T01:32:48.289Z,14.6
2018-06-13T01:34:10.697Z,14.6
2018-06-13T01:35:33.053Z,14.6
2018-06-13T01:36:52.874Z,14.6
2018-06-13T01:38:15.239Z,14.7
2018-06-13T01:39:35.079Z,14.7
2018-06-13T01:40:59.992Z,14.7
2018-06-13T01:42:22.342Z,14.7
2018-06-13T01:43:47.238Z,14.6
2018-06-13T01:45:09.647Z,14.6
2018-06-13T01:46:32.008Z,14.6
2018-06-13T01:47:51.880Z,14.5
2018-06-13T01:49:19.317Z,14.5
2018-06-13T01:50:41.722Z,14.6
2018-06-13T01:52:04.108Z,14.5
2018-06-13T01:53:23.957Z,14.5
2018-06-13T01:54:43.808Z,14.5
2018-06-13T01:56:03.674Z,14.5
2018-06-13T01:57:23.546Z,14.5
2018-06-13T01:58:50.963Z,14.5
2018-06-13T02:00:20.944Z,14.5
2018-06-13T02:01:43.300Z,14.5
2018-06-13T02:03:03.187Z,14.5
2018-06-13T02:04:25.572Z,14.5
2018-06-13T02:05:47.991Z,14.5
2018-06-13T02:07:07.823Z,14.5
2018-06-13T02:08:30.176Z,14.5
2018-06-13T02:09:50.062Z,14.5
2018-06-13T02:11:12.459Z,14.5
2018-06-13T02:12:32.330Z,14.4
2018-06-13T02:13:52.159Z,14.5
2018-06-13T02:15:17.057Z,14.5
2018-06-13T02:16:41.967Z,14.4
2018-06-13T02:18:01.817Z,14.4
2018-06-13T02:19:24.200Z,14.2
2018-06-13T02:20:44.064Z,14.1
2018-06-13T02:22:03.985Z,13.8
2018-06-13T02:23:23.835Z,14.1
2018-06-13T02:24:43.725Z,14.2
2018-06-13T02:26:13.706Z,14.5
2018-06-13T02:27:33.558Z,14.5
2018-06-13T02:28:55.915Z,14.6
2018-06-13T02:30:25.865Z,14.5
2018-06-13T02:31:45.692Z,14.5
2018-06-13T02:33:13.114Z,14.9
2018-06-13T02:34:33.025Z,15
2018-06-13T02:35:52.890Z,15
2018-06-13T02:37:20.340Z,15
2018-06-13T02:38:40.173Z,15
2018-06-13T02:40:00.049Z,15
2018-06-13T02:41:19.894Z,15
2018-06-13T02:42:39.740Z,14.9
2018-06-13T02:44:02.101Z,14.9
2018-06-13T02:45:21.935Z,15
2018-06-13T02:46:41.763Z,15
2018-06-13T02:48:01.595Z,15
2018-06-13T02:49:21.414Z,14.9
2018-06-13T02:50:43.851Z,14.9
2018-06-13T02:52:08.799Z,14.9
2018-06-13T02:53:33.759Z,15
2018-06-13T02:54:53.609Z,14.9
2018-06-13T02:56:18.528Z,14.9
2018-06-13T02:57:38.386Z,14.9
2018-06-13T02:59:00.767Z,14.9
2018-06-13T03:00:25.681Z,15
2018-06-13T03:01:53.111Z,15
2018-06-13T03:03:12.990Z,14.8
2018-06-13T03:04:37.958Z,13.8
2018-06-13T03:06:00.370Z,14.9
2018-06-13T03:07:22.759Z,14.7
2018-06-13T03:08:50.225Z,14.7
2018-06-13T03:10:10.054Z,14.8
2018-06-13T03:11:29.891Z,14.8
2018-06-13T03:12:54.826Z,14.8
2018-06-13T03:14:17.236Z,14.7
2018-06-13T03:15:42.127Z,14.7
2018-06-13T03:17:04.527Z,14.7
2018-06-13T03:18:26.889Z,14.7
2018-06-13T03:19:46.724Z,14.7
2018-06-13T03:21:11.631Z,14.7
2018-06-13T03:22:34.027Z,14.7
2018-06-13T03:24:01.503Z,14.6
2018-06-13T03:25:21.343Z,14.9
2018-06-13T03:26:43.775Z,14.9
2018-06-13T03:28:03.631Z,14.9
2018-06-13T03:29:23.493Z,14.8
2018-06-13T03:30:43.349Z,14.7
2018-06-13T03:32:03.202Z,14.5
2018-06-13T03:33:23.104Z,14.5
2018-06-13T03:34:48.009Z,14.5
2018-06-13T03:36:10.366Z,13.5
2018-06-13T03:37:32.732Z,14.7
2018-06-13T03:38:52.593Z,14.6
2018-06-13T03:40:14.955Z,14.6
2018-06-13T03:41:34.828Z,14.6
2018-06-13T03:42:54.652Z,14.6
2018-06-13T03:44:19.527Z,14.7
2018-06-13T03:45:39.343Z,14.7
2018-06-13T03:46:59.207Z,14.6
2018-06-13T03:48:21.566Z,14.6
2018-06-13T03:49:48.994Z,14.8
2018-06-13T03:51:08.863Z,14.8
2018-06-13T03:52:28.750Z,14.7
2018-06-13T03:53:51.118Z,14.7
2018-06-13T03:55:10.969Z,14.7
2018-06-13T03:56:33.403Z,14.7
2018-06-13T03:57:53.256Z,14.6
2018-06-13T03:59:18.173Z,14.6
2018-06-13T04:00:38.078Z,14.5
2018-06-13T04:02:05.541Z,14.5
2018-06-13T04:03:27.906Z,14.4
2018-06-13T04:04:47.730Z,14.5
2018-06-13T04:06:07.660Z,14.4
2018-06-13T04:07:32.594Z,14.4
2018-06-13T04:08:52.456Z,14.4
2018-06-13T04:10:17.346Z,14.4
2018-06-13T04:11:37.209Z,14.4
2018-06-13T04:13:12.262Z,14.4
2018-06-13T04:14:32.087Z,14.4
2018-06-13T04:15:56.989Z,14.4
2018-06-13T04:17:16.845Z,14.3
2018-06-13T04:18:41.740Z,14.3
2018-06-13T04:20:01.573Z,14.1
2018-06-13T04:21:23.967Z,14.1
2018-06-13T04:22:46.331Z,14.1
2018-06-13T04:24:13.814Z,14.1
2018-06-13T04:25:36.178Z,14.1
2018-06-13T04:26:56.042Z,14.1
2018-06-13T04:28:18.427Z,14.1
2018-06-13T04:29:40.819Z,14.1
2018-06-13T04:31:00.689Z,14.1
2018-06-13T04:32:20.508Z,14.1
2018-06-13T04:33:42.947Z,14.1
2018-06-13T04:35:02.802Z,14.1
2018-06-13T04:36:25.227Z,14.1
2018-06-13T04:37:47.600Z,14.2
2018-06-13T04:39:07.500Z,14.1
2018-06-13T04:40:27.327Z,14.1
2018-06-13T04:41:54.829Z,14.1
2018-06-13T04:43:17.233Z,14.1
2018-06-13T04:44:37.112Z,14.1
2018-06-13T04:45:59.499Z,14.1
2018-06-13T04:47:19.327Z,14.1
2018-06-13T04:48:41.688Z,14.1
2018-06-13T04:50:09.124Z,14.1
2018-06-13T04:51:28.981Z,14.1
2018-06-13T04:52:51.380Z,14.2
2018-06-13T04:54:11.203Z,14.2
2018-06-13T04:55:36.092Z,14.2
2018-06-13T04:56:58.494Z,14.4
2018-06-13T04:58:18.427Z,14.6
2018-06-13T04:59:38.337Z,14
2018-06-13T05:00:58.226Z,13.7
2018-06-13T05:02:20.584Z,13.8
2018-06-13T05:03:40.432Z,13.9
2018-06-13T05:05:00.259Z,13.9
2018-06-13T05:06:20.095Z,13.8
2018-06-13T05:07:39.976Z,14.8
2018-06-13T05:09:02.331Z,14.8
2018-06-13T05:10:24.716Z,14.8
2018-06-13T05:11:47.114Z,14.8
2018-06-13T05:13:09.532Z,14.8
2018-06-13T05:14:31.889Z,14.8
2018-06-13T05:15:51.714Z,14.8
2018-06-13T05:17:14.066Z,14.7
2018-06-13T05:18:36.423Z,14.7
2018-06-13T05:19:56.312Z,14.7
2018-06-13T05:21:16.138Z,14.8
2018-06-13T05:22:38.531Z,14.8
2018-06-13T05:23:58.430Z,14.8
2018-06-13T05:25:18.325Z,14.8
2018-06-13T05:26:43.289Z,14.8
2018-06-13T05:28:03.147Z,14.8
2018-06-13T05:29:30.596Z,14.9
2018-06-13T05:30:52.997Z,14.8
2018-06-13T05:32:12.850Z,14.9
2018-06-13T05:33:32.706Z,14.9
2018-06-13T05:34:52.543Z,14.9
2018-06-13T05:36:17.432Z,14.9
2018-06-13T05:37:37.339Z,14.9
2018-06-13T05:38:59.761Z,15
2018-06-13T05:40:19.610Z,15
2018-06-13T05:41:39.438Z,15
2018-06-13T05:43:04.328Z,14.9
2018-06-13T05:44:24.168Z,14.9
2018-06-13T05:45:46.562Z,15
2018-06-13T05:47:11.443Z,15
2018-06-13T05:48:31.260Z,15
2018-06-13T05:49:53.625Z,14.9
2018-06-13T05:51:13.453Z,14.9
2018-06-13T05:52:33.306Z,15
2018-06-13T05:53:58.232Z,15
2018-06-13T05:55:20.621Z,15.1
2018-06-13T05:56:40.447Z,15.1
2018-06-13T05:58:00.320Z,15
2018-06-13T05:59:20.147Z,15
2018-06-13T06:00:40.012Z,15
2018-06-13T06:02:04.903Z,14.9
2018-06-13T06:03:24.735Z,15
2018-06-13T06:04:44.561Z,15
2018-06-13T06:06:06.916Z,15
2018-06-13T06:07:26.776Z,15
2018-06-13T06:08:46.640Z,15.1
2018-06-13T06:10:06.470Z,15
2018-06-13T06:11:26.293Z,15
2018-06-13T06:12:48.695Z,14.9
2018-06-13T06:14:08.538Z,14.9
2018-06-13T06:15:33.459Z,14.9
2018-06-13T06:17:03.458Z,14.9
2018-06-13T06:18:23.364Z,15.1
2018-06-13T06:19:43.233Z,15.2
2018-06-13T06:21:08.212Z,14.4
2018-06-13T06:22:30.599Z,15.5
2018-06-13T06:23:50.428Z,15.3
2018-06-13T06:25:17.894Z,14.9
2018-06-13T06:26:47.914Z,14.9
2018-06-13T06:28:07.777Z,15.3
2018-06-13T06:29:27.637Z,15.3
2018-06-13T06:30:50.016Z,15.3
2018-06-13T06:32:09.844Z,15.3
2018-06-13T06:33:32.233Z,15.2
2018-06-13T06:34:57.121Z,15.3
2018-06-13T06:36:27.151Z,15.3
2018-06-13T06:37:54.653Z,15.1
2018-06-13T06:39:14.506Z,15.3
2018-06-13T06:40:34.338Z,15.2
2018-06-13T06:41:56.717Z,14.9
2018-06-13T06:43:19.066Z,14.9
2018-06-13T06:44:38.899Z,14.9
2018-06-13T06:45:58.722Z,15
2018-06-13T06:47:21.079Z,15
2018-06-13T06:48:56.145Z,15.2
2018-06-13T06:50:15.977Z,15.1
2018-06-13T06:51:38.342Z,15.2
2018-06-13T06:52:58.175Z,15.2
2018-06-13T06:54:18.047Z,15.1
2018-06-13T06:55:45.471Z,15
2018-06-13T06:57:07.848Z,15.1
2018-06-13T06:58:27.703Z,15.1
2018-06-13T06:59:47.561Z,15.1
2018-06-13T07:01:07.456Z,15
2018-06-13T07:02:27.326Z,15
2018-06-13T07:03:49.738Z,15.1
2018-06-13T07:05:14.676Z,15.1
2018-06-13T07:06:37.085Z,15.1
2018-06-13T07:08:04.511Z,15
2018-06-13T07:09:24.338Z,15.1
2018-06-13T07:10:44.197Z,14.9
2018-06-13T07:12:06.549Z,15
2018-06-13T07:13:26.378Z,15.1
2018-06-13T07:14:53.870Z,15.1
2018-06-13T07:16:18.749Z,15.1
2018-06-13T07:17:38.618Z,15
2018-06-13T07:19:01.026Z,14.9
2018-06-13T07:20:31.030Z,15.2
2018-06-13T07:21:55.927Z,15
2018-06-13T07:23:15.806Z,15
2018-06-13T07:24:35.637Z,15.1
2018-06-13T07:25:55.512Z,15.1
2018-06-13T07:27:20.408Z,15.2
2018-06-13T07:28:45.287Z,15.3
2018-06-13T07:30:05.133Z,15.3
2018-06-13T07:31:35.109Z,15.4
2018-06-13T07:33:02.546Z,15.3
2018-06-13T07:34:24.899Z,15.3
2018-06-13T07:35:47.330Z,15.4
2018-06-13T07:37:09.684Z,15.4
2018-06-13T07:38:29.521Z,15.4
2018-06-13T07:39:49.355Z,15.4
2018-06-13T07:41:29.455Z,15.4
2018-06-13T07:43:09.566Z,15.4
2018-06-13T07:44:29.400Z,15.4
2018-06-13T07:45:51.756Z,15.5
2018-06-13T07:47:11.631Z,15.5
2018-06-13T07:48:44.160Z,15.5
2018-06-13T07:50:04.025Z,15.6
2018-06-13T07:51:23.843Z,15.6
2018-06-13T07:52:46.217Z,15.5
2018-06-13T07:54:06.047Z,15.6
2018-06-13T07:55:25.872Z,15.6
2018-06-13T07:56:48.242Z,15.6
2018-06-13T07:58:08.071Z,15.6
2018-06-13T07:59:27.913Z,15.6
2018-06-13T08:00:55.378Z,15.6
2018-06-13T08:02:17.783Z,15.6
2018-06-13T08:03:40.143Z,15.6
2018-06-13T08:04:59.972Z,15.5
2018-06-13T08:06:19.810Z,15.5
2018-06-13T08:07:47.282Z,15.4
2018-06-13T08:09:07.143Z,15.3
2018-06-13T08:10:34.564Z,15.4
2018-06-13T08:11:54.384Z,15.4
2018-06-13T08:13:14.243Z,15.4
2018-06-13T08:14:34.063Z,15.4
2018-06-13T08:15:53.894Z,15.4
2018-06-13T08:17:16.304Z,15.5
2018-06-13T08:19:06.533Z,15.5
2018-06-13T08:20:28.897Z,15.5
2018-06-13T08:21:58.873Z,15.6
2018-06-13T08:23:23.751Z,15.5
2018-06-13T08:24:51.208Z,15.5
2018-06-13T08:26:18.621Z,15.5
2018-06-13T08:27:51.122Z,15.4
2018-06-13T08:29:26.126Z,15.4
2018-06-13T08:30:46.009Z,15.4
2018-06-13T08:32:18.497Z,15.4
2018-06-13T08:33:40.863Z,15.4
2018-06-13T08:35:03.244Z,15.4
2018-06-13T08:36:28.121Z,15.4
2018-06-13T08:37:53.007Z,15.4
2018-06-13T08:39:20.416Z,15.5
2018-06-13T08:40:45.349Z,15.5
2018-06-13T08:42:10.234Z,15.5
2018-06-13T08:43:47.790Z,15.5
2018-06-13T08:45:17.786Z,15.5
2018-06-13T08:46:37.631Z,15.6
2018-06-13T08:47:57.489Z,15.6
2018-06-13T08:49:24.968Z,15.6
2018-06-13T08:50:44.795Z,15.7
2018-06-13T08:52:04.627Z,15.7
2018-06-13T08:53:29.525Z,15.7
2018-06-13T08:54:51.957Z,15.6
2018-06-13T08:56:14.309Z,15.7
2018-06-13T08:57:36.682Z,15.7
2018-06-13T08:59:04.091Z,15.7
2018-06-13T09:00:23.949Z,15.7
2018-06-13T09:01:51.364Z,15.7
2018-06-13T09:03:13.730Z,15.7
2018-06-13T09:04:33.614Z,15.8
2018-06-13T09:05:53.478Z,15.8
2018-06-13T09:07:13.358Z,15.8
2018-06-13T09:08:35.711Z,15.8
2018-06-13T09:10:05.673Z,15.8
2018-06-13T09:11:25.514Z,15.9
2018-06-13T09:12:52.922Z,15.9
2018-06-13T09:14:22.907Z,15.9
2018-06-13T09:15:42.749Z,15.9
2018-06-13T09:17:02.589Z,15.9
2018-06-13T09:18:24.946Z,16
2018-06-13T09:19:44.770Z,16.1
2018-06-13T09:21:07.172Z,16
2018-06-13T09:22:42.203Z,16.1
2018-06-13T09:24:02.060Z,16.2
2018-06-13T09:25:21.963Z,16.1
2018-06-13T09:26:44.344Z,16.1
2018-06-13T09:28:06.727Z,16.1
2018-06-13T09:29:29.116Z,16.1
2018-06-13T09:30:48.943Z,16.1
2018-06-13T09:32:11.341Z,16.2
2018-06-13T09:33:31.225Z,16.2
2018-06-13T09:34:51.064Z,16.3
2018-06-13T09:36:10.939Z,16.3
2018-06-13T09:37:30.837Z,16.3
2018-06-13T09:38:53.218Z,16.3
2018-06-13T09:40:18.094Z,16.3
2018-06-13T09:41:40.473Z,16.3
2018-06-13T09:43:00.295Z,16.3
2018-06-13T09:44:27.709Z,16.3
2018-06-13T09:46:03.270Z,16.2
2018-06-13T09:47:23.812Z,16.3
2018-06-13T09:48:46.203Z,16.4
2018-06-13T09:50:13.617Z,16.4
2018-06-13T09:51:41.098Z,16.4
2018-06-13T09:53:05.990Z,16.4
2018-06-13T09:54:25.841Z,16.4
2018-06-13T09:55:45.677Z,16.3
2018-06-13T09:57:05.528Z,16.3
2018-06-13T09:58:27.931Z,16.3
2018-06-13T09:59:47.761Z,16.3
2018-06-13T10:01:07.612Z,16.4
2018-06-13T10:02:32.535Z,16.3
2018-06-13T10:03:52.408Z,16.4
2018-06-13T10:05:12.282Z,16.4
2018-06-13T10:06:34.643Z,16.5
2018-06-13T10:07:57.029Z,16.4
2018-06-13T10:09:19.377Z,16.5
2018-06-13T10:10:39.207Z,16.5
2018-06-13T10:11:59.087Z,16.6
2018-06-13T10:13:21.502Z,16.6
2018-06-13T10:14:41.348Z,16.5
2018-06-13T10:16:01.201Z,16.5
2018-06-13T10:17:28.681Z,16.5
2018-06-13T10:18:56.110Z,16.5
2018-06-13T10:20:31.129Z,16.5
2018-06-13T10:21:51.016Z,16.6
2018-06-13T10:23:41.196Z,16.7
2018-06-13T10:25:21.388Z,16.6
2018-06-13T10:26:43.793Z,16.7
2018-06-13T10:28:03.723Z,16.7
2018-06-13T10:29:23.554Z,16.6
2018-06-13T10:30:43.376Z,16.7
2018-06-13T10:32:10.807Z,16.7
2018-06-13T10:33:33.169Z,16.7
2018-06-13T10:35:15.818Z,16.8
2018-06-13T10:36:38.233Z,16.9
2018-06-13T10:37:58.083Z,16.9
2018-06-13T10:39:20.469Z,16.9
2018-06-13T10:40:40.343Z,16.9
2018-06-13T10:42:07.763Z,16.9
2018-06-13T10:43:32.667Z,17
2018-06-13T10:44:57.615Z,16.9
2018-06-13T10:46:17.441Z,16.9
2018-06-13T10:47:42.385Z,16.9
2018-06-13T10:49:04.741Z,17.1
2018-06-13T10:50:24.566Z,17.1
2018-06-13T10:51:44.390Z,17
2018-06-13T10:53:04.214Z,17
2018-06-13T10:54:31.699Z,17
2018-06-13T10:55:54.052Z,17
2018-06-13T10:57:13.916Z,17
2018-06-13T10:58:33.749Z,17
2018-06-13T10:59:53.581Z,16.9
2018-06-13T11:01:18.486Z,17
2018-06-13T11:02:38.353Z,17
2018-06-13T11:04:00.743Z,17
2018-06-13T11:05:40.802Z,16.9
2018-06-13T11:07:03.178Z,16.9
2018-06-13T11:08:23.025Z,16.8
2018-06-13T11:09:42.906Z,16.8
2018-06-13T11:11:05.268Z,16.8
2018-06-13T11:12:25.148Z,16.7
2018-06-13T11:13:44.988Z,16.7
2018-06-13T11:15:04.812Z,16.8
2018-06-13T11:16:24.636Z,16.7
2018-06-13T11:17:44.480Z,16.7
2018-06-13T11:19:04.333Z,16.6
2018-06-13T11:20:31.770Z,16.6
2018-06-13T11:21:59.208Z,16.6
2018-06-13T11:23:19.036Z,16.6
2018-06-13T11:24:38.858Z,16.7
2018-06-13T11:25:58.709Z,16.8
2018-06-13T11:27:31.303Z,16.7
2018-06-13T11:29:26.557Z,16.6
2018-06-13T11:30:48.910Z,16.7
2018-06-13T11:32:11.325Z,16.6
2018-06-13T11:33:31.203Z,16.7
2018-06-13T11:34:53.560Z,16.5
2018-06-13T11:36:20.985Z,16.6
2018-06-13T11:37:45.888Z,16.5
2018-06-13T11:39:05.781Z,16.6
2018-06-13T11:40:25.610Z,16.5
2018-06-13T11:41:53.034Z,16.4
2018-06-13T11:43:17.928Z,16.7
2018-06-13T11:44:37.803Z,16.7
2018-06-13T11:46:00.219Z,16.6
2018-06-13T11:47:20.051Z,16.6
2018-06-13T11:48:42.407Z,16.6
2018-06-13T11:50:02.232Z,16.6
2018-06-13T11:51:29.659Z,16.7
2018-06-13T11:52:52.017Z,16.6
2018-06-13T11:54:16.917Z,16.4
2018-06-13T11:55:39.326Z,16.6
2018-06-13T11:56:59.180Z,16.6
2018-06-13T11:58:26.664Z,16.6
2018-06-13T11:59:49.018Z,16.5
2018-06-13T12:01:08.848Z,16.6
2018-06-13T12:02:28.702Z,16.6
2018-06-13T12:03:48.579Z,16.7
2018-06-13T12:05:10.943Z,16.7
2018-06-13T12:06:33.296Z,16.7
2018-06-13T12:07:53.175Z,16.6
2018-06-13T12:09:13.000Z,16.6
2018-06-13T12:10:32.835Z,16.7
2018-06-13T12:11:52.671Z,16.8
2018-06-13T12:13:17.606Z,16.8
2018-06-13T12:14:42.539Z,16.8
2018-06-13T12:16:02.414Z,16.8
2018-06-13T12:17:24.780Z,16.7
2018-06-13T12:18:49.701Z,16.6
2018-06-13T12:20:12.072Z,16.6
2018-06-13T12:21:31.901Z,16.6
2018-06-13T12:22:51.810Z,16.6
2018-06-13T12:24:24.289Z,16.3
2018-06-13T12:25:56.828Z,16.4
2018-06-13T12:27:16.678Z,16.4
2018-06-13T12:28:36.587Z,16.4
2018-06-13T12:30:21.808Z,16.4
2018-06-13T12:31:44.156Z,16.4
2018-06-13T12:33:06.531Z,16.4
2018-06-13T12:34:26.415Z,16.4
2018-06-13T12:36:14.100Z,16.4
2018-06-13T12:37:33.929Z,16.1
2018-06-13T12:38:53.753Z,16.1
2018-06-13T12:40:13.598Z,16.1
2018-06-13T12:41:36.066Z,16.3
2018-06-13T12:43:01.013Z,16.1
2018-06-13T12:44:23.366Z,16
2018-06-13T12:46:00.966Z,16
2018-06-13T12:47:23.372Z,16
2018-06-13T12:48:48.312Z,16
2018-06-13T12:50:13.225Z,16
2018-06-13T12:51:33.058Z,15.9
2018-06-13T12:52:52.886Z,16
2018-06-13T12:54:12.725Z,16
2018-06-13T12:55:35.125Z,16
2018-06-13T12:56:54.949Z,16.1
2018-06-13T12:58:19.836Z,16.1
2018-06-13T12:59:39.655Z,16
2018-06-13T13:01:02.043Z,16
2018-06-13T13:02:21.873Z,16
2018-06-13T13:03:41.718Z,16
2018-06-13T13:05:04.087Z,16.1
2018-06-13T13:06:29.014Z,16.1
2018-06-13T13:07:58.952Z,16.1
2018-06-13T13:09:18.798Z,16
2018-06-13T13:10:41.180Z,15.9
2018-06-13T13:12:01.060Z,15.9
2018-06-13T13:13:28.534Z,16
2018-06-13T13:14:48.372Z,16
2018-06-13T13:16:08.191Z,15.9
2018-06-13T13:17:28.029Z,15.9
2018-06-13T13:18:55.510Z,16
2018-06-13T13:20:15.394Z,15.8
2018-06-13T13:21:45.402Z,16
2018-06-13T13:23:07.810Z,16
2018-06-13T13:24:32.706Z,16.1
2018-06-13T13:26:00.125Z,16.1
2018-06-13T13:27:19.950Z,16.1
2018-06-13T13:28:39.784Z,16.2
2018-06-13T13:30:09.795Z,16.3
2018-06-13T13:31:29.637Z,16.4
2018-06-13T13:32:54.544Z,16.3
2018-06-13T13:34:16.908Z,16.3
2018-06-13T13:35:39.331Z,16.4
2018-06-13T13:37:09.315Z,16.4
2018-06-13T13:38:29.149Z,16.3
2018-06-13T13:39:54.034Z,16.5
2018-06-13T13:41:18.912Z,16.4
2018-06-13T13:42:38.789Z,16.5
2018-06-13T13:44:01.185Z,16.6
2018-06-13T13:45:21.062Z,16.6
2018-06-13T13:46:40.923Z,16.7
2018-06-13T13:48:00.779Z,16.8
2018-06-13T13:49:20.654Z,16.8
2018-06-13T13:50:43.024Z,16.8
2018-06-13T13:52:05.439Z,16.8
2018-06-13T13:53:27.805Z,16.8
2018-06-13T13:54:52.737Z,16.8
2018-06-13T13:56:12.574Z,16.9
2018-06-13T13:57:42.526Z,16.8
2018-06-13T13:59:02.370Z,16.9
2018-06-13T14:00:27.268Z,16.8
2018-06-13T14:01:57.245Z,16.9
2018-06-13T14:03:19.638Z,16.9
2018-06-13T14:04:44.537Z,16.9
2018-06-13T14:06:11.949Z,16.8
2018-06-13T14:07:34.328Z,16.8
2018-06-13T14:08:56.704Z,16.9
2018-06-13T14:10:26.708Z,16.9
2018-06-13T14:11:46.589Z,16.9
2018-06-13T14:13:08.936Z,17
2018-06-13T14:14:38.946Z,17
2018-06-13T14:15:58.822Z,17
2018-06-13T14:17:18.651Z,16.9
2018-06-13T14:18:48.661Z,16.9
2018-06-13T14:20:11.049Z,16.9
2018-06-13T14:21:30.897Z,16.8
2018-06-13T14:22:50.788Z,16.9
2018-06-13T14:24:20.763Z,16.8
2018-06-13T14:25:50.740Z,16.8
2018-06-13T14:27:18.197Z,16.9
2018-06-13T14:28:40.598Z,16.9
2018-06-13T14:30:02.954Z,16.9
2018-06-13T14:31:37.976Z,16.9
2018-06-13T14:32:57.803Z,16.9
2018-06-13T14:34:27.756Z,16.8
2018-06-13T14:35:52.696Z,16.8
2018-06-13T14:37:12.537Z,16.9
2018-06-13T14:38:34.898Z,16.8
2018-06-13T14:39:57.249Z,16.8
2018-06-13T14:41:17.079Z,16.9
2018-06-13T14:42:39.472Z,16.8
2018-06-13T14:44:01.860Z,16.7
2018-06-13T14:45:21.691Z,16.8
2018-06-13T14:46:44.045Z,16.8
2018-06-13T14:48:11.507Z,16.7
2018-06-13T14:49:31.346Z,16.7
2018-06-13T14:50:51.224Z,16.6
2018-06-13T14:52:13.603Z,16.6
2018-06-13T14:53:33.425Z,16.6
2018-06-13T14:54:55.807Z,16.5
2018-06-13T14:56:18.158Z,16.5
2018-06-13T14:58:10.898Z,16.6
2018-06-13T14:59:33.277Z,16.5
2018-06-13T15:00:53.110Z,16.5
2018-06-13T15:02:12.931Z,16.4
2018-06-13T15:03:32.755Z,16.4
2018-06-13T15:04:52.584Z,16.5
2018-06-13T15:06:20.007Z,16.5
2018-06-13T15:07:39.950Z,16.4
2018-06-13T15:08:59.837Z,16.4
2018-06-13T15:10:22.249Z,16.3
2018-06-13T15:11:49.664Z,16.3
2018-06-13T15:13:22.171Z,16.3
2018-06-13T15:14:44.539Z,16.2
2018-06-13T15:16:06.898Z,16.2
2018-06-13T15:17:26.724Z,16.2
2018-06-13T15:18:49.088Z,16.2
2018-06-13T15:20:08.912Z,16.2
2018-06-13T15:21:36.326Z,16.2
2018-06-13T15:22:56.171Z,16.2
2018-06-13T15:24:18.542Z,16.2
2018-06-13T15:25:38.388Z,16.2
2018-06-13T15:27:03.276Z,16.1
2018-06-13T15:28:25.713Z,16.2
2018-06-13T15:29:50.630Z,16.2
2018-06-13T15:31:10.491Z,16.2
2018-06-13T15:32:30.398Z,16.2
2018-06-13T15:33:52.777Z,16.2
2018-06-13T15:35:15.208Z,16.2
2018-06-13T15:36:40.156Z,16.1
2018-06-13T15:38:02.525Z,16.1
2018-06-13T15:39:22.350Z,16.1
2018-06-13T15:40:49.822Z,16.1
2018-06-13T15:42:09.705Z,16.1
2018-06-13T15:43:32.070Z,16.1
2018-06-13T15:44:51.985Z,16.1
2018-06-13T15:46:11.833Z,16
2018-06-13T15:47:34.254Z,16.1
2018-06-13T15:49:01.707Z,16.1
2018-06-13T15:50:24.167Z,16.1
2018-06-13T15:51:44.005Z,16.1
2018-06-13T15:53:13.964Z,16
2018-06-13T15:54:36.314Z,16
2018-06-13T15:55:56.174Z,16
2018-06-13T15:57:23.623Z,16.1
2018-06-13T15:58:45.977Z,16
2018-06-13T16:00:05.845Z,16.1
2018-06-13T16:01:25.733Z,16
2018-06-13T16:02:45.586Z,16
2018-06-13T16:04:15.566Z,15.9
2018-06-13T16:05:35.474Z,16
2018-06-13T16:07:02.879Z,16
2018-06-13T16:08:22.708Z,15.9
2018-06-13T16:09:42.534Z,16
2018-06-13T16:11:07.417Z,15.9
2018-06-13T16:12:27.290Z,15.9
2018-06-13T16:13:47.125Z,15.9
2018-06-13T16:15:09.479Z,15.9
2018-06-13T16:16:31.870Z,15.8
2018-06-13T16:17:51.748Z,16
2018-06-13T16:19:11.568Z,16
2018-06-13T16:20:31.444Z,15.9
2018-06-13T16:21:51.277Z,15.9
2018-06-13T16:23:11.111Z,15.9
2018-06-13T16:24:30.939Z,15.7
2018-06-13T16:25:53.342Z,15.9
2018-06-13T16:27:20.829Z,15.7
2018-06-13T16:28:40.734Z,16
2018-06-13T16:30:03.103Z,15.9
2018-06-13T16:31:30.586Z,15.9
2018-06-13T16:32:52.942Z,15.8
2018-06-13T16:34:15.366Z,15.8
2018-06-13T16:35:35.214Z,15.8
2018-06-13T16:36:55.074Z,15.8
2018-06-13T16:38:14.969Z,15.7
2018-06-13T16:39:34.867Z,15.8
2018-06-13T16:40:54.685Z,15.9
2018-06-13T16:42:24.671Z,15.8
2018-06-13T16:43:47.058Z,15.8
2018-06-13T16:45:09.419Z,15.8
2018-06-13T16:46:31.773Z,15.8
2018-06-13T16:47:56.703Z,15.8
2018-06-13T16:49:16.584Z,15.9
2018-06-13T16:50:36.472Z,15.9
2018-06-13T16:52:03.908Z,15.9
2018-06-13T16:53:26.257Z,15.8
2018-06-13T16:54:51.156Z,15.7
2018-06-13T16:56:13.508Z,15.7
2018-06-13T16:57:33.329Z,15.6
2018-06-13T16:59:00.804Z,15.7
2018-06-13T17:00:20.658Z,15.6
2018-06-13T17:01:40.563Z,15.7
2018-06-13T17:03:00.421Z,15.7
2018-06-13T17:04:25.349Z,15.6
2018-06-13T17:05:45.204Z,15.7
2018-06-13T17:07:05.084Z,15.7
2018-06-13T17:08:32.508Z,15.7
2018-06-13T17:09:52.379Z,15.7
2018-06-13T17:11:14.760Z,15.7
2018-06-13T17:12:34.581Z,15.7
2018-06-13T17:13:59.532Z,15.7
2018-06-13T17:15:19.403Z,15.7
2018-06-13T17:16:39.282Z,15.7
2018-06-13T17:18:01.662Z,15.7
2018-06-13T17:19:21.499Z,15.7
2018-06-13T17:20:43.866Z,15.6
2018-06-13T17:22:06.265Z,15.6
2018-06-13T17:23:26.094Z,15.6
2018-06-13T17:24:51.013Z,15.6
2018-06-13T17:26:10.870Z,15.6
2018-06-13T17:27:33.364Z,15.6
2018-06-13T17:29:05.909Z,15.6
2018-06-13T17:30:25.754Z,15.6
2018-06-13T17:31:48.174Z,15.5
2018-06-13T17:33:08.024Z,15.5
2018-06-13T17:34:30.425Z,15.5
2018-06-13T17:35:50.287Z,15.4
2018-06-13T17:37:22.768Z,15.4
2018-06-13T17:38:45.230Z,15.4
2018-06-13T17:40:10.203Z,15.4
2018-06-13T17:41:47.826Z,15.3
2018-06-13T17:43:38.093Z,15.3
2018-06-13T17:44:57.938Z,15.3
2018-06-13T17:46:22.841Z,15.3
2018-06-13T17:47:47.746Z,15.2
2018-06-13T17:49:10.153Z,15.2
2018-06-13T17:50:40.158Z,15.2
2018-06-13T17:52:17.717Z,15.2
2018-06-13T17:53:37.562Z,15.2
2018-06-13T17:55:05.028Z,15.2
2018-06-13T17:56:35.010Z,15.1
2018-06-13T17:57:59.977Z,15.1
2018-06-13T17:59:19.874Z,15.1
2018-06-13T18:00:52.386Z,15
2018-06-13T18:02:49.750Z,15.1
2018-06-13T18:04:14.710Z,15.1
2018-06-13T18:05:37.106Z,15.1
2018-06-13T18:07:02.013Z,15.1
2018-06-13T18:08:34.613Z,15
2018-06-13T18:09:54.471Z,15
2018-06-13T18:11:34.593Z,15
2018-06-13T18:13:02.034Z,15
2018-06-13T18:14:21.877Z,15
2018-06-13T18:15:59.526Z,15
2018-06-13T18:17:19.376Z,15
2018-06-13T18:18:41.746Z,15
2018-06-13T18:20:09.220Z,15
2018-06-13T18:21:31.678Z,15
2018-06-13T18:22:51.546Z,14.9
2018-06-13T18:24:11.386Z,14.9
2018-06-13T18:25:33.745Z,14.9
2018-06-13T18:27:06.231Z,15
2018-06-13T18:28:28.589Z,15
2018-06-13T18:29:50.954Z,15
2018-06-13T18:31:15.912Z,15
2018-06-13T18:32:38.296Z,14.9
2018-06-13T18:33:58.238Z,14.9
2018-06-13T18:35:18.096Z,14.9